createdAt,value
2018-09-08T00:01:23.260Z,16.60
2018-09-08T00:03:54.275Z,16.50
2018-09-08T00:06:29.359Z,16.30
2018-09-08T00:08:59.975Z,16.20
2018-09-08T00:11:30.207Z,16.20
2018-09-08T00:14:00.507Z,16.10
2018-09-08T00:16:35.724Z,16.00
2018-09-08T00:19:11.167Z,15.90
2018-09-08T00:21:47.552Z,15.80
2018-09-08T00:24:23.361Z,15.70
2018-09-08T00:26:52.551Z,15.70
2018-09-08T00:29:52.805Z,15.60
2018-09-08T00:32:23.574Z,15.50
2018-09-08T00:34:53.572Z,15.40
2018-09-08T00:37:23.345Z,15.40
2018-09-08T00:39:53.892Z,15.30
2018-09-08T00:42:26.009Z,15.20
2018-09-08T00:44:56.338Z,15.10
2018-09-08T00:47:27.304Z,15.10
2018-09-08T00:49:57.441Z,15.00
2018-09-08T00:52:27.543Z,15.00
2018-09-08T00:55:00.876Z,14.90
2018-09-08T00:57:33.132Z,14.80
2018-09-08T01:00:02.730Z,14.80
2018-09-08T01:02:32.765Z,14.70
2018-09-08T01:05:02.439Z,14.60
2018-09-08T01:07:32.348Z,14.60
2018-09-08T01:10:04.228Z,14.50
2018-09-08T01:12:33.648Z,14.40
2018-09-08T01:15:07.185Z,14.30
2018-09-08T01:17:38.292Z,14.20
2018-09-08T01:20:08.238Z,14.20
2018-09-08T01:22:39.048Z,14.10
2018-09-08T01:25:08.339Z,14.00
2018-09-08T01:27:37.702Z,14.00
2018-09-08T01:30:07.277Z,13.90
2018-09-08T01:32:36.548Z,13.90
2018-09-08T01:35:07.280Z,13.80
2018-09-08T01:37:37.952Z,13.80
2018-09-08T01:40:10.620Z,13.70
2018-09-08T01:42:42.168Z,13.70
2018-09-08T01:45:12.087Z,13.60
2018-09-08T01:47:41.900Z,13.50
2018-09-08T01:50:11.233Z,13.40
2018-09-08T01:52:41.100Z,13.30
2018-09-08T01:55:11.216Z,13.30
2018-09-08T01:57:41.718Z,13.30
2018-09-08T02:00:11.411Z,13.20
2018-09-08T02:02:40.787Z,13.20
2018-09-08T02:05:11.057Z,13.10
2018-09-08T02:07:40.775Z,13.00
2018-09-08T02:10:09.859Z,13.00
2018-09-08T02:12:39.102Z,13.00
2018-09-08T02:15:08.622Z,13.00
2018-09-08T02:17:38.930Z,13.00
2018-09-08T02:20:08.240Z,13.00
2018-09-08T02:22:38.003Z,12.90
2018-09-08T02:25:07.640Z,12.80
2018-09-08T02:27:36.935Z,12.80
2018-09-08T02:30:09.432Z,12.80
2018-09-08T02:32:39.208Z,12.80
2018-09-08T02:35:08.904Z,12.70
2018-09-08T02:37:39.476Z,12.70
2018-09-08T02:40:09.103Z,12.70
2018-09-08T02:42:39.135Z,12.60
2018-09-08T02:45:09.130Z,12.60
2018-09-08T02:47:39.831Z,12.60
2018-09-08T02:50:43.332Z,12.60
2018-09-08T02:53:14.250Z,12.60
2018-09-08T02:55:42.787Z,12.50
2018-09-08T02:58:11.728Z,12.50
2018-09-08T03:00:39.960Z,12.50
2018-09-08T03:03:08.466Z,12.50
2018-09-08T03:05:36.210Z,12.40
2018-09-08T03:08:04.361Z,12.30
2018-09-08T03:10:32.999Z,12.30
2018-09-08T03:13:01.643Z,12.30
2018-09-08T03:15:30.058Z,12.30
2018-09-08T03:17:58.560Z,12.30
2018-09-08T03:20:27.418Z,12.30
2018-09-08T03:22:55.835Z,12.30
2018-09-08T03:25:24.279Z,12.30
2018-09-08T03:27:52.353Z,12.20
2018-09-08T03:30:21.213Z,12.20
2018-09-08T03:32:49.725Z,12.20
2018-09-08T03:35:18.493Z,12.20
2018-09-08T03:37:47.225Z,12.20
2018-09-08T03:40:15.731Z,12.10
2018-09-08T03:42:44.247Z,12.10
2018-09-08T03:45:13.006Z,12.10
2018-09-08T03:47:42.122Z,12.10
2018-09-08T03:50:10.485Z,12.10
2018-09-08T03:52:38.420Z,12.00
2018-09-08T03:55:07.859Z,12.10
2018-09-08T03:57:36.457Z,12.10
2018-09-08T04:00:04.995Z,12.00
2018-09-08T04:02:33.511Z,11.90
2018-09-08T04:05:05.017Z,12.00
2018-09-08T04:07:35.895Z,12.00
2018-09-08T04:10:07.457Z,12.00
2018-09-08T04:12:38.633Z,11.90
2018-09-08T04:15:10.864Z,11.90
2018-09-08T04:17:41.664Z,11.90
2018-09-08T04:20:12.248Z,11.80
2018-09-08T04:22:42.636Z,11.90
2018-09-08T04:25:12.393Z,11.80
2018-09-08T04:27:42.174Z,11.90
2018-09-08T04:30:14.207Z,11.90
2018-09-08T04:32:45.211Z,11.90
2018-09-08T04:35:15.916Z,11.80
2018-09-08T04:37:47.257Z,11.90
2018-09-08T04:40:20.837Z,11.90
2018-09-08T04:42:55.915Z,11.90
2018-09-08T04:45:27.169Z,11.90
2018-09-08T04:47:58.607Z,12.00
2018-09-08T04:50:29.445Z,12.00
2018-09-08T04:53:00.561Z,12.00
2018-09-08T04:55:34.513Z,12.00
2018-09-08T04:58:05.903Z,12.10
2018-09-08T05:00:38.507Z,12.20
2018-09-08T05:03:09.610Z,12.20
2018-09-08T05:05:39.566Z,12.30
2018-09-08T05:08:10.096Z,12.40
2018-09-08T05:10:41.671Z,12.50
2018-09-08T05:13:12.536Z,12.70
2018-09-08T05:15:43.092Z,12.70
2018-09-08T05:18:13.687Z,12.80
2018-09-08T05:20:49.612Z,12.90
2018-09-08T05:23:19.655Z,13.00
2018-09-08T05:25:50.587Z,13.10
2018-09-08T05:28:23.809Z,13.20
2018-09-08T05:30:55.034Z,13.30
2018-09-08T05:33:27.831Z,13.40
2018-09-08T05:36:10.281Z,13.50
2018-09-08T05:42:11.026Z,13.80
2018-09-08T05:44:55.353Z,13.90
2018-09-08T05:47:29.507Z,14.00
2018-09-08T05:50:00.618Z,14.20
2018-09-08T05:52:31.027Z,14.40
2018-09-08T05:55:13.543Z,14.50
2018-09-08T05:57:43.740Z,14.70
2018-09-08T06:00:30.843Z,14.80
2018-09-08T06:03:10.536Z,14.90
2018-09-08T06:08:23.856Z,15.20
2018-09-08T06:17:35.829Z,15.60
2018-09-08T06:37:03.502Z,16.00
2018-09-08T06:47:01.029Z,16.70
2018-09-08T06:49:31.935Z,16.90
2018-09-08T06:52:02.145Z,16.90
2018-09-08T06:54:32.112Z,17.10
2018-09-08T06:57:02.883Z,17.10
2018-09-08T06:59:33.018Z,17.20
2018-09-08T07:02:02.968Z,17.30
2018-09-08T07:04:33.175Z,17.30
2018-09-08T07:07:03.391Z,17.40
2018-09-08T07:09:33.861Z,17.50
2018-09-08T07:12:04.088Z,17.60
2018-09-08T07:14:33.026Z,17.70
2018-09-08T07:17:03.583Z,17.80
2018-09-08T07:19:33.654Z,17.90
2018-09-08T07:22:03.233Z,18.00
2018-09-08T07:24:33.197Z,18.10
2018-09-08T07:27:03.463Z,18.10
2018-09-08T07:29:33.651Z,18.20
2018-09-08T07:32:04.342Z,18.20
2018-09-08T07:34:35.261Z,18.30
2018-09-08T07:37:05.687Z,18.40
2018-09-08T07:39:36.079Z,18.50
2018-09-08T07:42:06.618Z,18.60
2018-09-08T07:44:38.038Z,18.70
2018-09-08T07:47:09.236Z,18.80
2018-09-08T07:49:40.945Z,18.90
2018-09-08T07:52:12.405Z,18.90
2018-09-08T07:54:42.930Z,19.10
2018-09-08T07:57:13.482Z,19.20
2018-09-08T07:59:46.085Z,19.30
2018-09-08T08:02:16.892Z,19.40
2018-09-08T08:04:48.475Z,19.50
2018-09-08T08:07:23.183Z,19.50
2018-09-08T08:09:56.146Z,19.60
2018-09-08T08:12:27.529Z,19.60
2018-09-08T08:14:57.831Z,19.70
2018-09-08T08:17:29.179Z,19.90
2018-09-08T08:20:00.318Z,20.00
2018-09-08T08:22:32.329Z,20.00
2018-09-08T08:25:05.264Z,20.20
2018-09-08T08:27:42.434Z,20.30
2018-09-08T08:30:15.969Z,20.50
2018-09-08T08:33:03.967Z,20.50
2018-09-08T08:35:38.128Z,20.50
2018-09-08T08:38:12.932Z,20.50
2018-09-08T08:40:51.329Z,20.60
2018-09-08T08:43:29.233Z,20.60
2018-09-08T08:46:05.428Z,20.70
2018-09-08T08:48:39.269Z,20.80
2018-09-08T08:51:19.885Z,20.90
2018-09-08T08:54:03.085Z,20.90
2018-09-08T08:56:38.848Z,20.90
2018-09-08T08:59:17.255Z,20.90
2018-09-08T09:01:51.973Z,20.90
2018-09-08T09:04:36.639Z,21.00
2018-09-08T09:07:24.374Z,21.00
2018-09-08T09:12:44.987Z,21.10
2018-09-08T09:15:30.978Z,21.20
2018-09-08T09:18:16.811Z,21.30
2018-09-08T09:23:02.405Z,21.40
2018-09-08T09:25:38.208Z,21.40
2018-09-08T09:28:14.960Z,21.50
2018-09-08T09:30:48.782Z,21.50
2018-09-08T09:50:18.968Z,21.80
2018-09-08T09:52:57.620Z,21.90
2018-09-08T09:55:34.099Z,22.00
2018-09-08T09:58:11.963Z,22.00
2018-09-08T10:00:51.479Z,22.00
2018-09-08T10:03:28.397Z,22.00
2018-09-08T10:06:02.097Z,22.00
2018-09-08T10:08:38.673Z,22.00
2018-09-08T10:17:23.205Z,22.00
2018-09-08T10:19:59.570Z,22.10
2018-09-08T10:22:33.164Z,22.30
2018-09-08T10:25:11.307Z,22.30
2018-09-08T10:27:50.965Z,22.30
2018-09-08T10:30:22.013Z,22.50
2018-09-08T10:33:02.575Z,22.70
2018-09-08T10:35:37.203Z,22.80
2018-09-08T10:38:09.716Z,22.90
2018-09-08T10:40:42.238Z,22.80
2018-09-08T10:43:11.936Z,22.60
2018-09-08T10:45:50.273Z,22.50
2018-09-08T10:48:22.517Z,22.40
2018-09-08T10:50:54.077Z,22.40
2018-09-08T10:53:24.613Z,22.50
2018-09-08T10:56:12.572Z,22.50
2018-09-08T10:58:48.984Z,22.60
2018-09-08T11:01:19.807Z,22.80
2018-09-08T11:03:57.990Z,23.00
2018-09-08T11:06:33.664Z,23.00
2018-09-08T11:09:09.219Z,23.00
2018-09-08T11:11:46.009Z,23.00
2018-09-08T11:14:22.767Z,23.00
2018-09-08T11:16:57.097Z,22.90
2018-09-08T11:19:30.757Z,22.80
2018-09-08T11:22:03.559Z,22.80
2018-09-08T11:24:38.307Z,22.70
2018-09-08T11:27:09.377Z,22.80
2018-09-08T11:29:52.636Z,23.00
2018-09-08T11:32:37.476Z,23.10
2018-09-08T11:35:09.716Z,23.50
2018-09-08T11:37:58.027Z,23.60
2018-09-08T11:40:32.456Z,23.60
2018-09-08T11:43:03.404Z,23.50
2018-09-08T11:45:38.157Z,23.30
2018-09-08T11:48:07.856Z,23.10
2018-09-08T11:50:39.038Z,23.00
2018-09-08T11:53:09.109Z,22.80
2018-09-08T11:55:42.479Z,22.70
2018-09-08T11:58:13.671Z,22.60
2018-09-08T12:00:43.197Z,22.60
2018-09-08T12:03:13.783Z,22.50
2018-09-08T12:05:44.942Z,22.40
2018-09-08T12:09:44.677Z,22.30
2018-09-08T12:12:15.780Z,22.40
2018-09-08T12:14:47.021Z,22.50
2018-09-08T12:17:17.817Z,22.60
2018-09-08T12:19:55.907Z,22.60
2018-09-08T12:22:28.295Z,22.70
2018-09-08T12:25:04.586Z,22.80
2018-09-08T12:27:37.806Z,22.70
2018-09-08T12:30:11.556Z,22.70
2018-09-08T12:32:46.744Z,22.70
2018-09-08T12:35:20.680Z,22.50
2018-09-08T12:37:55.838Z,22.50
2018-09-08T12:40:35.081Z,22.50
2018-09-08T13:01:08.424Z,22.50
2018-09-08T13:03:38.329Z,22.80
2018-09-08T13:06:09.260Z,22.80
2018-09-08T13:08:43.946Z,22.70
2018-09-08T13:11:25.107Z,22.50
2018-09-08T13:13:57.737Z,22.60
2018-09-08T13:16:37.750Z,22.70
2018-09-08T13:19:17.025Z,23.00
2018-09-08T13:21:50.021Z,23.30
2018-09-08T13:24:27.001Z,23.40
2018-09-08T13:27:15.826Z,23.40
2018-09-08T14:35:31.953Z,21.10
2018-09-08T14:38:11.732Z,21.20
2018-09-08T14:40:48.223Z,21.20
2018-09-08T14:43:27.983Z,21.20
2018-09-08T14:49:04.104Z,21.00
2018-09-08T14:51:38.639Z,20.90
2018-09-08T14:54:08.103Z,20.70
2018-09-08T14:56:40.665Z,20.60
2018-09-08T14:59:13.598Z,20.60
2018-09-08T15:01:44.454Z,20.50
2018-09-08T15:04:17.171Z,20.60
2018-09-08T15:06:50.865Z,20.60
2018-09-08T15:09:29.327Z,20.60
2018-09-08T15:12:07.466Z,20.70
2018-09-08T15:14:40.120Z,20.70
2018-09-08T15:17:14.772Z,20.80
2018-09-08T15:19:49.932Z,20.80
2018-09-08T15:22:24.680Z,20.70
2018-09-08T15:24:57.409Z,20.80
2018-09-08T15:27:28.436Z,20.70
2018-09-08T15:30:08.582Z,20.80
2018-09-08T15:32:48.406Z,20.90
2018-09-08T15:35:26.289Z,21.00
2018-09-08T15:38:04.015Z,21.20
2018-09-08T15:40:35.570Z,21.30
2018-09-08T15:43:20.654Z,21.40
2018-09-08T15:48:59.003Z,21.60
2018-09-08T15:57:17.721Z,21.40
2018-09-08T15:59:48.966Z,21.20
2018-09-08T16:02:20.407Z,21.00
2018-09-08T16:04:54.148Z,20.90
2018-09-08T16:07:24.820Z,20.90
2018-09-08T16:09:56.621Z,20.80
2018-09-08T16:12:28.715Z,20.60
2018-09-08T16:14:59.162Z,20.50
2018-09-08T16:17:34.568Z,20.50
2018-09-08T16:22:42.111Z,20.50
2018-09-08T16:25:14.526Z,20.50
2018-09-08T16:27:52.944Z,20.50
2018-09-08T16:33:06.087Z,20.70
2018-09-08T16:35:38.650Z,20.70
2018-09-08T16:38:09.148Z,20.60
2018-09-08T16:40:38.572Z,20.50
2018-09-08T16:43:08.254Z,20.30
2018-09-08T16:45:39.512Z,20.20
2018-09-08T16:48:09.995Z,20.00
2018-09-08T16:50:40.975Z,19.90
2018-09-08T16:53:10.458Z,19.80
2018-09-08T16:55:39.521Z,19.70
2018-09-08T16:58:09.045Z,19.70
2018-09-08T17:00:38.935Z,19.50
2018-09-08T17:03:08.395Z,19.40
2018-09-08T17:05:38.098Z,19.30
2018-09-08T17:08:08.736Z,19.10
2018-09-08T17:10:38.423Z,18.80
2018-09-08T17:13:07.549Z,18.70
2018-09-08T17:15:36.910Z,18.50
2018-09-08T17:18:06.143Z,18.40
2018-09-08T17:20:35.293Z,18.20
2018-09-08T17:23:04.534Z,18.10
2018-09-08T17:25:34.017Z,17.90
2018-09-08T17:28:02.996Z,17.80
2018-09-08T17:30:32.352Z,17.70
2018-09-08T17:33:01.497Z,17.60
2018-09-08T17:35:31.154Z,17.40
2018-09-08T17:38:01.153Z,17.30
2018-09-08T17:40:30.689Z,17.20
2018-09-08T17:43:00.789Z,17.10
2018-09-08T17:45:30.661Z,17.00
2018-09-08T17:47:59.796Z,16.90
2018-09-08T17:50:28.755Z,16.80
2018-09-08T17:52:57.966Z,16.70
2018-09-08T17:55:27.861Z,16.60
2018-09-08T17:57:57.552Z,16.50
2018-09-08T18:00:27.563Z,16.50
2018-09-08T18:02:57.224Z,16.40
2018-09-08T18:05:27.655Z,16.30
2018-09-08T18:07:57.659Z,16.30
2018-09-08T18:10:27.190Z,16.20
2018-09-08T18:12:56.249Z,16.20
2018-09-08T18:15:25.159Z,16.10
2018-09-08T18:17:54.452Z,16.00
2018-09-08T18:20:23.989Z,15.90
2018-09-08T18:22:54.076Z,15.90
2018-09-08T18:25:23.813Z,15.80
2018-09-08T18:27:53.796Z,15.70
2018-09-08T18:30:25.069Z,15.70
2018-09-08T18:32:54.787Z,15.60
2018-09-08T18:35:26.146Z,15.50
2018-09-08T18:37:57.293Z,15.50
2018-09-08T18:40:26.439Z,15.40
2018-09-08T18:42:56.264Z,15.40
2018-09-08T18:45:26.047Z,15.30
2018-09-08T18:47:56.079Z,15.20
2018-09-08T18:50:27.832Z,15.10
2018-09-08T18:52:57.031Z,15.10
2018-09-08T18:55:26.952Z,15.00
2018-09-08T18:57:57.855Z,14.90
2018-09-08T19:00:27.041Z,14.90
2018-09-08T19:02:58.806Z,14.80
2018-09-08T19:05:29.627Z,14.70
2018-09-08T19:08:00.163Z,14.60
2018-09-08T19:10:33.790Z,14.50
2018-09-08T19:13:05.252Z,14.40
2018-09-08T19:15:35.838Z,14.40
2018-09-08T19:18:06.340Z,14.20
2018-09-08T19:20:40.091Z,14.20
2018-09-08T19:23:09.401Z,14.10
2018-09-08T19:25:40.761Z,14.00
2018-09-08T19:28:10.533Z,14.00
2018-09-08T19:30:39.653Z,13.90
2018-09-08T19:33:12.558Z,13.80
2018-09-08T19:35:41.727Z,13.80
2018-09-08T19:38:12.275Z,13.70
2018-09-08T19:40:49.836Z,13.70
2018-09-08T19:43:20.320Z,13.70
2018-09-08T19:45:49.384Z,13.60
2018-09-08T19:48:20.489Z,13.60
2018-09-08T19:50:52.419Z,13.50
2018-09-08T19:53:29.724Z,13.50
2018-09-08T19:55:59.355Z,13.40
2018-09-08T19:58:36.063Z,13.40
2018-09-08T20:01:05.478Z,13.40
2018-09-08T20:03:38.300Z,13.40
2018-09-08T20:06:08.351Z,13.40
2018-09-08T20:08:38.552Z,13.50
2018-09-08T20:11:08.318Z,13.50
2018-09-08T20:13:37.591Z,13.50
2018-09-08T20:16:07.091Z,13.50
2018-09-08T20:18:36.509Z,13.60
2018-09-08T20:21:06.442Z,13.60
2018-09-08T20:23:35.955Z,13.70
2018-09-08T20:26:05.362Z,13.70
2018-09-08T20:28:36.744Z,13.70
2018-09-08T20:31:06.952Z,13.70
2018-09-08T20:33:36.282Z,13.70
2018-09-08T20:36:06.417Z,13.70
2018-09-08T20:38:37.677Z,13.70
2018-09-08T20:41:06.830Z,13.70
2018-09-08T20:43:36.250Z,13.80
2018-09-08T20:46:06.292Z,13.70
2018-09-08T20:48:35.745Z,13.70
2018-09-08T20:51:04.905Z,13.70
2018-09-08T20:53:34.270Z,13.60
2018-09-08T20:56:03.512Z,13.60
2018-09-08T20:58:33.084Z,13.60
2018-09-08T21:01:02.233Z,13.60
2018-09-08T21:03:31.394Z,13.60
2018-09-08T21:06:00.925Z,13.60
2018-09-08T21:08:34.475Z,13.70
2018-09-08T21:11:03.933Z,13.60
2018-09-08T21:13:33.048Z,13.60
2018-09-08T21:16:03.131Z,13.60
2018-09-08T21:18:32.539Z,13.60
2018-09-08T21:21:02.744Z,13.50
2018-09-08T21:23:32.795Z,13.50
2018-09-08T21:26:02.174Z,13.40
2018-09-08T21:28:32.201Z,13.40
2018-09-08T21:31:01.442Z,13.40
2018-09-08T21:33:30.592Z,13.40
2018-09-08T21:36:00.293Z,13.40
2018-09-08T21:38:31.688Z,13.40
2018-09-08T21:41:01.804Z,13.30
2018-09-08T21:43:32.177Z,13.20
2018-09-08T21:46:01.535Z,13.20
2018-09-08T21:48:30.954Z,13.00
2018-09-08T21:51:00.066Z,12.90
2018-09-08T21:53:29.148Z,12.80
2018-09-08T21:55:58.648Z,12.80
2018-09-08T21:58:27.980Z,12.70
2018-09-08T22:00:58.251Z,12.60
2018-09-08T22:03:28.209Z,12.50
2018-09-08T22:05:57.520Z,12.50
2018-09-08T22:08:26.588Z,12.50
2018-09-08T22:10:56.447Z,12.40
2018-09-08T22:13:25.646Z,12.40
2018-09-08T22:15:54.984Z,12.30
2018-09-08T22:18:24.229Z,12.20
2018-09-08T22:20:56.529Z,12.20
2018-09-08T22:23:25.813Z,12.10
2018-09-08T22:25:55.002Z,12.00
2018-09-08T22:28:24.455Z,12.00
2018-09-08T22:30:54.181Z,11.90
2018-09-08T22:33:23.231Z,11.90
2018-09-08T22:35:52.404Z,11.80
2018-09-08T22:38:22.263Z,11.70
2018-09-08T22:40:52.388Z,11.70
2018-09-08T22:43:21.430Z,11.60
2018-09-08T22:45:50.561Z,11.50
2018-09-08T22:48:19.855Z,11.50
2018-09-08T22:50:49.172Z,11.40
2018-09-08T22:53:18.543Z,11.40
2018-09-08T22:55:47.728Z,11.40
2018-09-08T22:58:17.496Z,11.30
2018-09-08T23:00:47.685Z,11.20
2018-09-08T23:03:17.930Z,11.10
2018-09-08T23:05:47.238Z,11.10
2018-09-08T23:08:16.814Z,11.00
2018-09-08T23:10:46.003Z,11.00
2018-09-08T23:13:15.419Z,10.90
2018-09-08T23:15:44.537Z,10.90
2018-09-08T23:18:13.834Z,10.90
2018-09-08T23:20:43.032Z,10.80
2018-09-08T23:23:12.304Z,10.80
2018-09-08T23:25:41.425Z,10.80
2018-09-08T23:28:12.296Z,10.80
2018-09-08T23:30:41.917Z,10.70
2018-09-08T23:33:11.088Z,10.70
2018-09-08T23:35:40.412Z,10.70
2018-09-08T23:38:10.125Z,10.60
2018-09-08T23:40:39.248Z,10.60
2018-09-08T23:43:08.754Z,10.50
2018-09-08T23:45:38.024Z,10.50
2018-09-08T23:48:07.250Z,10.40
2018-09-08T23:50:38.040Z,10.50
2018-09-08T23:53:07.561Z,10.40
2018-09-08T23:55:38.359Z,10.40
2018-09-08T23:58:08.412Z,10.40
